sensor_id;sensor_type;location;lat;lon;timestamp;P1;durP1;ratioP1;P2;durP2;ratioP2
56051;SDS011;41919;42.648;23.384;2022-08-19T00:01:30;6.65;;;4.70;;
56051;SDS011;41919;42.648;23.384;2022-08-19T00:03:57;5.03;;;4.50;;
56051;SDS011;41919;42.648;23.384;2022-08-19T00:06:24;6.63;;;4.65;;
56051;SDS011;41919;42.648;23.384;2022-08-19T00:08:50;6.05;;;4.60;;
56051;SDS011;41919;42.648;23.384;2022-08-19T00:11:16;7.03;;;4.82;;
56051;SDS011;41919;42.648;23.384;2022-08-19T00:13:42;6.18;;;4.80;;
56051;SDS011;41919;42.648;23.384;2022-08-19T00:16:07;5.97;;;4.72;;
56051;SDS011;41919;42.648;23.384;2022-08-19T00:18:33;4.82;;;4.30;;
56051;SDS011;41919;42.648;23.384;2022-08-19T00:20:59;5.72;;;4.70;;
56051;SDS011;41919;42.648;23.384;2022-08-19T00:23:25;5.78;;;4.57;;
56051;SDS011;41919;42.648;23.384;2022-08-19T00:25:51;4.95;;;4.40;;
56051;SDS011;41919;42.648;23.384;2022-08-19T00:28:17;6.18;;;4.55;;
56051;SDS011;41919;42.648;23.384;2022-08-19T00:30:43;5.20;;;4.53;;
56051;SDS011;41919;42.648;23.384;2022-08-19T00:33:08;6.22;;;4.60;;
56051;SDS011;41919;42.648;23.384;2022-08-19T00:35:34;4.95;;;4.55;;
56051;SDS011;41919;42.648;23.384;2022-08-19T00:38:03;5.45;;;4.95;;
56051;SDS011;41919;42.648;23.384;2022-08-19T00:40:31;5.13;;;3.63;;
56051;SDS011;41919;42.648;23.384;2022-08-19T00:42:57;3.72;;;3.42;;
56051;SDS011;41919;42.648;23.384;2022-08-19T00:45:23;3.90;;;3.60;;
56051;SDS011;41919;42.648;23.384;2022-08-19T00:47:52;4.13;;;3.67;;
56051;SDS011;41919;42.648;23.384;2022-08-19T00:50:18;4.40;;;4.00;;
56051;SDS011;41919;42.648;23.384;2022-08-19T00:52:47;4.35;;;3.95;;
56051;SDS011;41919;42.648;23.384;2022-08-19T00:55:20;5.20;;;4.05;;
56051;SDS011;41919;42.648;23.384;2022-08-19T00:57:51;5.18;;;4.50;;
56051;SDS011;41919;42.648;23.384;2022-08-19T01:00:21;5.07;;;4.57;;
56051;SDS011;41919;42.648;23.384;2022-08-19T01:02:49;5.32;;;4.85;;
56051;SDS011;41919;42.648;23.384;2022-08-19T01:05:19;7.00;;;4.80;;
56051;SDS011;41919;42.648;23.384;2022-08-19T01:07:49;5.45;;;4.45;;
56051;SDS011;41919;42.648;23.384;2022-08-19T01:10:17;6.07;;;4.38;;
56051;SDS011;41919;42.648;23.384;2022-08-19T01:12:47;4.55;;;4.15;;
56051;SDS011;41919;42.648;23.384;2022-08-19T01:15:14;5.65;;;4.65;;
56051;SDS011;41919;42.648;23.384;2022-08-19T01:17:43;5.25;;;4.75;;
56051;SDS011;41919;42.648;23.384;2022-08-19T01:20:14;5.47;;;4.97;;
56051;SDS011;41919;42.648;23.384;2022-08-19T01:22:58;5.30;;;4.63;;
56051;SDS011;41919;42.648;23.384;2022-08-19T01:25:26;5.90;;;4.90;;
56051;SDS011;41919;42.648;23.384;2022-08-19T01:28:19;6.68;;;4.72;;
56051;SDS011;41919;42.648;23.384;2022-08-19T01:30:53;4.63;;;4.22;;
56051;SDS011;41919;42.648;23.384;2022-08-19T01:33:19;6.13;;;5.00;;
56051;SDS011;41919;42.648;23.384;2022-08-19T01:35:46;5.78;;;5.03;;
56051;SDS011;41919;42.648;23.384;2022-08-19T01:38:24;5.80;;;5.07;;
56051;SDS011;41919;42.648;23.384;2022-08-19T01:40:53;6.57;;;4.97;;
56051;SDS011;41919;42.648;23.384;2022-08-19T01:43:19;6.50;;;5.20;;
56051;SDS011;41919;42.648;23.384;2022-08-19T01:45:45;5.95;;;5.07;;
56051;SDS011;41919;42.648;23.384;2022-08-19T01:48:11;5.93;;;5.35;;
56051;SDS011;41919;42.648;23.384;2022-08-19T01:50:37;6.97;;;5.60;;
56051;SDS011;41919;42.648;23.384;2022-08-19T01:53:04;8.30;;;5.75;;
56051;SDS011;41919;42.648;23.384;2022-08-19T01:55:31;6.82;;;5.10;;
56051;SDS011;41919;42.648;23.384;2022-08-19T01:57:57;8.48;;;5.07;;
56051;SDS011;41919;42.648;23.384;2022-08-19T02:00:25;5.25;;;4.50;;
56051;SDS011;41919;42.648;23.384;2022-08-19T02:02:54;4.93;;;4.53;;
56051;SDS011;41919;42.648;23.384;2022-08-19T02:05:20;6.35;;;5.60;;
56051;SDS011;41919;42.648;23.384;2022-08-19T02:07:46;6.20;;;5.35;;
56051;SDS011;41919;42.648;23.384;2022-08-19T02:10:18;5.97;;;5.38;;
56051;SDS011;41919;42.648;23.384;2022-08-19T02:12:46;5.30;;;4.80;;
56051;SDS011;41919;42.648;23.384;2022-08-19T02:15:12;7.53;;;5.47;;
56051;SDS011;41919;42.648;23.384;2022-08-19T02:17:38;5.78;;;5.28;;
56051;SDS011;41919;42.648;23.384;2022-08-19T02:20:04;7.10;;;5.05;;
56051;SDS011;41919;42.648;23.384;2022-08-19T02:22:31;6.63;;;5.40;;
56051;SDS011;41919;42.648;23.384;2022-08-19T02:24:57;5.97;;;5.35;;
56051;SDS011;41919;42.648;23.384;2022-08-19T02:27:22;9.38;;;5.20;;
56051;SDS011;41919;42.648;23.384;2022-08-19T02:29:49;6.32;;;5.40;;
56051;SDS011;41919;42.648;23.384;2022-08-19T02:32:15;7.47;;;5.10;;
56051;SDS011;41919;42.648;23.384;2022-08-19T02:34:41;6.18;;;4.82;;
56051;SDS011;41919;42.648;23.384;2022-08-19T02:37:07;5.78;;;4.93;;
56051;SDS011;41919;42.648;23.384;2022-08-19T02:39:55;6.20;;;4.72;;
56051;SDS011;41919;42.648;23.384;2022-08-19T02:42:21;5.03;;;4.60;;
56051;SDS011;41919;42.648;23.384;2022-08-19T02:44:47;5.00;;;4.50;;
56051;SDS011;41919;42.648;23.384;2022-08-19T02:47:12;6.43;;;4.90;;
56051;SDS011;41919;42.648;23.384;2022-08-19T02:49:39;6.30;;;5.13;;
56051;SDS011;41919;42.648;23.384;2022-08-19T02:52:04;7.35;;;5.32;;
56051;SDS011;41919;42.648;23.384;2022-08-19T02:54:30;7.40;;;4.53;;
56051;SDS011;41919;42.648;23.384;2022-08-19T02:56:55;5.65;;;5.10;;
56051;SDS011;41919;42.648;23.384;2022-08-19T02:59:21;6.55;;;4.80;;
56051;SDS011;41919;42.648;23.384;2022-08-19T03:01:46;5.70;;;5.20;;
56051;SDS011;41919;42.648;23.384;2022-08-19T03:04:13;6.40;;;5.25;;
56051;SDS011;41919;42.648;23.384;2022-08-19T03:06:41;5.93;;;5.30;;
56051;SDS011;41919;42.648;23.384;2022-08-19T03:09:09;5.82;;;5.20;;
56051;SDS011;41919;42.648;23.384;2022-08-19T03:11:35;7.78;;;5.53;;
56051;SDS011;41919;42.648;23.384;2022-08-19T03:14:01;5.97;;;5.43;;
56051;SDS011;41919;42.648;23.384;2022-08-19T03:16:29;6.10;;;5.50;;
56051;SDS011;41919;42.648;23.384;2022-08-19T03:18:57;6.07;;;5.47;;
56051;SDS011;41919;42.648;23.384;2022-08-19T03:21:26;6.82;;;5.57;;
56051;SDS011;41919;42.648;23.384;2022-08-19T03:23:54;6.07;;;5.47;;
56051;SDS011;41919;42.648;23.384;2022-08-19T03:26:20;6.43;;;5.07;;
56051;SDS011;41919;42.648;23.384;2022-08-19T03:28:46;8.35;;;5.60;;
56051;SDS011;41919;42.648;23.384;2022-08-19T03:31:15;5.82;;;5.32;;
56051;SDS011;41919;42.648;23.384;2022-08-19T03:33:42;6.57;;;5.80;;
56051;SDS011;41919;42.648;23.384;2022-08-19T03:39:00;6.47;;;5.72;;
56051;SDS011;41919;42.648;23.384;2022-08-19T03:41:36;6.18;;;5.15;;
56051;SDS011;41919;42.648;23.384;2022-08-19T03:44:03;5.53;;;5.03;;
56051;SDS011;41919;42.648;23.384;2022-08-19T03:46:31;8.55;;;5.78;;
56051;SDS011;41919;42.648;23.384;2022-08-19T03:48:58;6.30;;;5.68;;
56051;SDS011;41919;42.648;23.384;2022-08-19T03:53:56;5.38;;;4.85;;
56051;SDS011;41919;42.648;23.384;2022-08-19T03:56:23;6.90;;;5.50;;
56051;SDS011;41919;42.648;23.384;2022-08-19T03:58:56;6.80;;;5.25;;
56051;SDS011;41919;42.648;23.384;2022-08-19T04:01:23;6.00;;;5.40;;
56051;SDS011;41919;42.648;23.384;2022-08-19T04:03:51;7.38;;;5.25;;
56051;SDS011;41919;42.648;23.384;2022-08-19T04:06:25;5.85;;;5.25;;
56051;SDS011;41919;42.648;23.384;2022-08-19T04:08:53;6.88;;;5.35;;
56051;SDS011;41919;42.648;23.384;2022-08-19T04:11:21;6.03;;;5.05;;
56051;SDS011;41919;42.648;23.384;2022-08-19T04:13:50;5.63;;;5.13;;
56051;SDS011;41919;42.648;23.384;2022-08-19T04:16:21;6.35;;;5.10;;
56051;SDS011;41919;42.648;23.384;2022-08-19T04:18:48;5.72;;;5.20;;
56051;SDS011;41919;42.648;23.384;2022-08-19T04:21:18;10.70;;;5.47;;
56051;SDS011;41919;42.648;23.384;2022-08-19T04:23:46;5.70;;;5.20;;
56051;SDS011;41919;42.648;23.384;2022-08-19T04:26:13;5.30;;;4.80;;
56051;SDS011;41919;42.648;23.384;2022-08-19T04:28:43;6.80;;;4.65;;
56051;SDS011;41919;42.648;23.384;2022-08-19T04:31:13;7.05;;;4.88;;
56051;SDS011;41919;42.648;23.384;2022-08-19T04:33:40;6.65;;;5.28;;
56051;SDS011;41919;42.648;23.384;2022-08-19T04:36:06;7.15;;;5.10;;
56051;SDS011;41919;42.648;23.384;2022-08-19T04:38:32;7.32;;;5.20;;
56051;SDS011;41919;42.648;23.384;2022-08-19T04:40:58;5.78;;;5.28;;
56051;SDS011;41919;42.648;23.384;2022-08-19T04:46:13;5.68;;;5.00;;
56051;SDS011;41919;42.648;23.384;2022-08-19T04:48:39;5.35;;;4.85;;
56051;SDS011;41919;42.648;23.384;2022-08-19T04:51:06;6.78;;;4.90;;
56051;SDS011;41919;42.648;23.384;2022-08-19T04:53:34;7.07;;;5.00;;
56051;SDS011;41919;42.648;23.384;2022-08-19T04:56:04;5.55;;;5.05;;
56051;SDS011;41919;42.648;23.384;2022-08-19T04:58:33;6.80;;;5.00;;
56051;SDS011;41919;42.648;23.384;2022-08-19T05:01:00;5.30;;;4.75;;
56051;SDS011;41919;42.648;23.384;2022-08-19T05:03:26;6.30;;;5.07;;
56051;SDS011;41919;42.648;23.384;2022-08-19T05:05:51;6.05;;;4.85;;
56051;SDS011;41919;42.648;23.384;2022-08-19T05:08:19;5.50;;;5.00;;
56051;SDS011;41919;42.648;23.384;2022-08-19T05:10:47;6.38;;;5.00;;
56051;SDS011;41919;42.648;23.384;2022-08-19T05:13:16;5.95;;;5.18;;
56051;SDS011;41919;42.648;23.384;2022-08-19T05:15:43;5.63;;;4.72;;
56051;SDS011;41919;42.648;23.384;2022-08-19T05:18:08;7.18;;;5.03;;
56051;SDS011;41919;42.648;23.384;2022-08-19T05:20:53;5.40;;;4.90;;
56051;SDS011;41919;42.648;23.384;2022-08-19T05:23:37;7.30;;;5.20;;
56051;SDS011;41919;42.648;23.384;2022-08-19T05:26:03;7.45;;;5.40;;
56051;SDS011;41919;42.648;23.384;2022-08-19T05:28:30;6.50;;;5.40;;
56051;SDS011;41919;42.648;23.384;2022-08-19T05:30:55;5.80;;;4.63;;
56051;SDS011;41919;42.648;23.384;2022-08-19T05:33:21;5.85;;;5.18;;
56051;SDS011;41919;42.648;23.384;2022-08-19T05:35:48;7.05;;;4.60;;
56051;SDS011;41919;42.648;23.384;2022-08-19T05:38:14;9.95;;;5.10;;
56051;SDS011;41919;42.648;23.384;2022-08-19T05:40:41;7.40;;;4.90;;
56051;SDS011;41919;42.648;23.384;2022-08-19T05:43:14;5.78;;;5.28;;
56051;SDS011;41919;42.648;23.384;2022-08-19T05:45:41;6.80;;;5.32;;
56051;SDS011;41919;42.648;23.384;2022-08-19T05:48:08;7.18;;;5.10;;
56051;SDS011;41919;42.648;23.384;2022-08-19T05:50:37;7.25;;;5.07;;
56051;SDS011;41919;42.648;23.384;2022-08-19T05:53:05;6.90;;;4.95;;
56051;SDS011;41919;42.648;23.384;2022-08-19T05:55:31;5.80;;;5.30;;
56051;SDS011;41919;42.648;23.384;2022-08-19T05:57:57;8.73;;;5.45;;
56051;SDS011;41919;42.648;23.384;2022-08-19T06:00:22;5.65;;;5.05;;
56051;SDS011;41919;42.648;23.384;2022-08-19T06:02:48;5.15;;;4.60;;
56051;SDS011;41919;42.648;23.384;2022-08-19T06:05:13;6.53;;;4.95;;
56051;SDS011;41919;42.648;23.384;2022-08-19T06:07:40;6.28;;;5.20;;
56051;SDS011;41919;42.648;23.384;2022-08-19T06:10:06;9.30;;;4.72;;
56051;SDS011;41919;42.648;23.384;2022-08-19T06:12:35;5.50;;;4.72;;
56051;SDS011;41919;42.648;23.384;2022-08-19T06:15:05;6.40;;;4.50;;
56051;SDS011;41919;42.648;23.384;2022-08-19T06:17:33;5.15;;;4.80;;
56051;SDS011;41919;42.648;23.384;2022-08-19T06:20:00;4.95;;;4.55;;
56051;SDS011;41919;42.648;23.384;2022-08-19T06:22:26;5.05;;;4.57;;
56051;SDS011;41919;42.648;23.384;2022-08-19T06:24:52;5.35;;;4.50;;
56051;SDS011;41919;42.648;23.384;2022-08-19T06:27:19;6.65;;;4.60;;
56051;SDS011;41919;42.648;23.384;2022-08-19T06:29:45;7.55;;;4.80;;
56051;SDS011;41919;42.648;23.384;2022-08-19T06:32:12;4.50;;;4.10;;
56051;SDS011;41919;42.648;23.384;2022-08-19T06:34:40;5.15;;;4.60;;
56051;SDS011;41919;42.648;23.384;2022-08-19T06:37:06;7.10;;;4.65;;
56051;SDS011;41919;42.648;23.384;2022-08-19T06:39:33;6.85;;;4.80;;
56051;SDS011;41919;42.648;23.384;2022-08-19T06:42:02;11.90;;;5.20;;
56051;SDS011;41919;42.648;23.384;2022-08-19T06:44:31;5.13;;;4.63;;
56051;SDS011;41919;42.648;23.384;2022-08-19T06:47:00;5.50;;;5.00;;
56051;SDS011;41919;42.648;23.384;2022-08-19T06:49:28;8.98;;;4.78;;
56051;SDS011;41919;42.648;23.384;2022-08-19T06:51:55;6.22;;;4.75;;
56051;SDS011;41919;42.648;23.384;2022-08-19T06:54:22;10.50;;;4.82;;
56051;SDS011;41919;42.648;23.384;2022-08-19T06:56:48;6.80;;;4.90;;
56051;SDS011;41919;42.648;23.384;2022-08-19T06:59:14;8.77;;;4.82;;
56051;SDS011;41919;42.648;23.384;2022-08-19T07:01:45;8.43;;;4.88;;
56051;SDS011;41919;42.648;23.384;2022-08-19T07:04:14;5.93;;;4.68;;
56051;SDS011;41919;42.648;23.384;2022-08-19T07:06:42;6.57;;;5.18;;
56051;SDS011;41919;42.648;23.384;2022-08-19T07:09:09;5.20;;;4.68;;
56051;SDS011;41919;42.648;23.384;2022-08-19T07:11:36;7.68;;;4.60;;
56051;SDS011;41919;42.648;23.384;2022-08-19T07:14:02;5.43;;;4.72;;
56051;SDS011;41919;42.648;23.384;2022-08-19T07:16:28;5.85;;;5.28;;
56051;SDS011;41919;42.648;23.384;2022-08-19T07:18:54;5.20;;;4.70;;
56051;SDS011;41919;42.648;23.384;2022-08-19T07:21:22;6.72;;;4.78;;
56051;SDS011;41919;42.648;23.384;2022-08-19T07:23:52;7.05;;;4.80;;
56051;SDS011;41919;42.648;23.384;2022-08-19T07:26:23;5.22;;;4.50;;
56051;SDS011;41919;42.648;23.384;2022-08-19T07:28:51;8.17;;;4.83;;
56051;SDS011;41919;42.648;23.384;2022-08-19T07:31:17;5.50;;;5.00;;
56051;SDS011;41919;42.648;23.384;2022-08-19T07:33:46;6.00;;;4.50;;
56051;SDS011;41919;42.648;23.384;2022-08-19T07:36:14;7.45;;;4.82;;
56051;SDS011;41919;42.648;23.384;2022-08-19T07:38:43;8.00;;;4.90;;
56051;SDS011;41919;42.648;23.384;2022-08-19T07:41:11;6.13;;;4.68;;
56051;SDS011;41919;42.648;23.384;2022-08-19T07:43:38;6.55;;;4.85;;
56051;SDS011;41919;42.648;23.384;2022-08-19T07:46:05;7.30;;;4.80;;
56051;SDS011;41919;42.648;23.384;2022-08-19T07:48:31;10.40;;;4.97;;
56051;SDS011;41919;42.648;23.384;2022-08-19T07:50:58;5.88;;;4.78;;
56051;SDS011;41919;42.648;23.384;2022-08-19T07:53:29;5.57;;;4.55;;
56051;SDS011;41919;42.648;23.384;2022-08-19T07:55:56;5.30;;;4.72;;
56051;SDS011;41919;42.648;23.384;2022-08-19T07:58:28;8.18;;;4.45;;
56051;SDS011;41919;42.648;23.384;2022-08-19T08:00:54;9.48;;;4.40;;
56051;SDS011;41919;42.648;23.384;2022-08-19T08:03:20;5.40;;;4.85;;
56051;SDS011;41919;42.648;23.384;2022-08-19T08:06:07;8.43;;;4.60;;
56051;SDS011;41919;42.648;23.384;2022-08-19T08:08:51;5.30;;;4.80;;
56051;SDS011;41919;42.648;23.384;2022-08-19T08:11:35;8.73;;;4.93;;
56051;SDS011;41919;42.648;23.384;2022-08-19T08:14:00;7.13;;;5.15;;
56051;SDS011;41919;42.648;23.384;2022-08-19T08:16:26;9.10;;;4.90;;
56051;SDS011;41919;42.648;23.384;2022-08-19T08:18:54;6.20;;;5.07;;
56051;SDS011;41919;42.648;23.384;2022-08-19T08:21:20;6.78;;;4.45;;
56051;SDS011;41919;42.648;23.384;2022-08-19T08:23:45;9.63;;;4.95;;
56051;SDS011;41919;42.648;23.384;2022-08-19T08:26:11;5.97;;;4.45;;
56051;SDS011;41919;42.648;23.384;2022-08-19T08:28:37;9.73;;;4.30;;
56051;SDS011;41919;42.648;23.384;2022-08-19T08:31:03;7.25;;;4.70;;
56051;SDS011;41919;42.648;23.384;2022-08-19T08:33:29;6.70;;;4.60;;
56051;SDS011;41919;42.648;23.384;2022-08-19T08:35:55;11.00;;;5.10;;
56051;SDS011;41919;42.648;23.384;2022-08-19T08:38:21;7.78;;;4.20;;
56051;SDS011;41919;42.648;23.384;2022-08-19T08:40:47;6.57;;;4.80;;
56051;SDS011;41919;42.648;23.384;2022-08-19T08:43:27;8.45;;;4.43;;
56051;SDS011;41919;42.648;23.384;2022-08-19T08:46:04;4.40;;;4.10;;
56051;SDS011;41919;42.648;23.384;2022-08-19T08:48:37;7.57;;;4.60;;
56051;SDS011;41919;42.648;23.384;2022-08-19T08:51:26;6.50;;;4.22;;
56051;SDS011;41919;42.648;23.384;2022-08-19T08:54:02;5.30;;;4.43;;
56051;SDS011;41919;42.648;23.384;2022-08-19T08:56:31;5.00;;;3.15;;
56051;SDS011;41919;42.648;23.384;2022-08-19T09:01:59;4.15;;;3.75;;
56051;SDS011;41919;42.648;23.384;2022-08-19T09:04:25;6.53;;;3.92;;
56051;SDS011;41919;42.648;23.384;2022-08-19T09:09:48;6.57;;;4.50;;
56051;SDS011;41919;42.648;23.384;2022-08-19T09:12:25;4.75;;;4.35;;
56051;SDS011;41919;42.648;23.384;2022-08-19T09:15:09;5.20;;;3.92;;
56051;SDS011;41919;42.648;23.384;2022-08-19T09:17:37;6.80;;;4.00;;
56051;SDS011;41919;42.648;23.384;2022-08-19T09:22:40;3.80;;;3.42;;
56051;SDS011;41919;42.648;23.384;2022-08-19T09:25:10;5.10;;;3.35;;
56051;SDS011;41919;42.648;23.384;2022-08-19T09:27:39;5.43;;;3.80;;
56051;SDS011;41919;42.648;23.384;2022-08-19T09:30:06;4.30;;;3.72;;
56051;SDS011;41919;42.648;23.384;2022-08-19T09:32:33;6.43;;;3.38;;
56051;SDS011;41919;42.648;23.384;2022-08-19T09:34:59;4.55;;;3.58;;
56051;SDS011;41919;42.648;23.384;2022-08-19T09:37:25;3.80;;;3.20;;
56051;SDS011;41919;42.648;23.384;2022-08-19T09:39:51;3.58;;;3.08;;
56051;SDS011;41919;42.648;23.384;2022-08-19T09:42:17;3.58;;;3.28;;
56051;SDS011;41919;42.648;23.384;2022-08-19T09:44:44;3.83;;;3.45;;
56051;SDS011;41919;42.648;23.384;2022-08-19T09:47:11;4.22;;;3.35;;
56051;SDS011;41919;42.648;23.384;2022-08-19T09:49:38;3.55;;;3.22;;
56051;SDS011;41919;42.648;23.384;2022-08-19T09:52:04;6.28;;;3.50;;
56051;SDS011;41919;42.648;23.384;2022-08-19T09:54:32;4.30;;;3.10;;
56051;SDS011;41919;42.648;23.384;2022-08-19T09:56:58;7.13;;;3.83;;
56051;SDS011;41919;42.648;23.384;2022-08-19T09:59:27;5.22;;;3.50;;
56051;SDS011;41919;42.648;23.384;2022-08-19T10:01:53;3.70;;;3.40;;
56051;SDS011;41919;42.648;23.384;2022-08-19T10:04:19;3.47;;;3.13;;
56051;SDS011;41919;42.648;23.384;2022-08-19T10:06:46;3.42;;;3.13;;
56051;SDS011;41919;42.648;23.384;2022-08-19T10:09:13;4.43;;;3.42;;
56051;SDS011;41919;42.648;23.384;2022-08-19T10:11:40;3.17;;;2.90;;
56051;SDS011;41919;42.648;23.384;2022-08-19T10:14:07;3.50;;;2.92;;
56051;SDS011;41919;42.648;23.384;2022-08-19T10:16:33;3.75;;;3.42;;
56051;SDS011;41919;42.648;23.384;2022-08-19T10:18:58;6.40;;;3.80;;
56051;SDS011;41919;42.648;23.384;2022-08-19T10:21:28;4.13;;;3.50;;
56051;SDS011;41919;42.648;23.384;2022-08-19T10:23:57;4.65;;;3.60;;
56051;SDS011;41919;42.648;23.384;2022-08-19T10:26:26;3.75;;;3.42;;
56051;SDS011;41919;42.648;23.384;2022-08-19T10:28:53;3.60;;;3.28;;
56051;SDS011;41919;42.648;23.384;2022-08-19T10:31:29;4.22;;;3.45;;
56051;SDS011;41919;42.648;23.384;2022-08-19T10:33:57;4.03;;;3.20;;
56051;SDS011;41919;42.648;23.384;2022-08-19T10:36:24;3.83;;;3.33;;
56051;SDS011;41919;42.648;23.384;2022-08-19T10:38:53;5.03;;;3.80;;
56051;SDS011;41919;42.648;23.384;2022-08-19T10:41:22;5.43;;;3.50;;
56051;SDS011;41919;42.648;23.384;2022-08-19T10:43:56;6.07;;;3.85;;
56051;SDS011;41919;42.648;23.384;2022-08-19T10:46:25;3.75;;;3.40;;
56051;SDS011;41919;42.648;23.384;2022-08-19T10:48:52;7.72;;;3.60;;
56051;SDS011;41919;42.648;23.384;2022-08-19T10:51:19;5.03;;;3.40;;
56051;SDS011;41919;42.648;23.384;2022-08-19T10:54:04;8.15;;;4.00;;
56051;SDS011;41919;42.648;23.384;2022-08-19T10:56:30;6.57;;;3.60;;
56051;SDS011;41919;42.648;23.384;2022-08-19T10:59:16;4.22;;;3.53;;
56051;SDS011;41919;42.648;23.384;2022-08-19T11:01:43;4.68;;;3.60;;
56051;SDS011;41919;42.648;23.384;2022-08-19T11:04:10;6.07;;;3.47;;
56051;SDS011;41919;42.648;23.384;2022-08-19T11:06:38;5.63;;;3.95;;
56051;SDS011;41919;42.648;23.384;2022-08-19T11:09:06;5.38;;;3.90;;
56051;SDS011;41919;42.648;23.384;2022-08-19T11:11:33;4.50;;;3.28;;
56051;SDS011;41919;42.648;23.384;2022-08-19T11:14:04;4.22;;;3.40;;
56051;SDS011;41919;42.648;23.384;2022-08-19T11:16:30;4.95;;;4.30;;
56051;SDS011;41919;42.648;23.384;2022-08-19T11:18:57;4.22;;;3.83;;
56051;SDS011;41919;42.648;23.384;2022-08-19T11:21:28;5.53;;;4.22;;
56051;SDS011;41919;42.648;23.384;2022-08-19T11:24:01;6.35;;;4.18;;
56051;SDS011;41919;42.648;23.384;2022-08-19T11:26:30;4.37;;;3.97;;
56051;SDS011;41919;42.648;23.384;2022-08-19T11:28:57;4.75;;;3.97;;
56051;SDS011;41919;42.648;23.384;2022-08-19T11:31:29;4.05;;;3.75;;
56051;SDS011;41919;42.648;23.384;2022-08-19T11:33:57;4.68;;;3.60;;
56051;SDS011;41919;42.648;23.384;2022-08-19T11:36:24;4.03;;;3.70;;
56051;SDS011;41919;42.648;23.384;2022-08-19T11:38:50;4.88;;;3.72;;
56051;SDS011;41919;42.648;23.384;2022-08-19T11:41:17;4.50;;;4.10;;
56051;SDS011;41919;42.648;23.384;2022-08-19T11:43:44;4.80;;;3.65;;
56051;SDS011;41919;42.648;23.384;2022-08-19T11:46:10;8.20;;;3.95;;
56051;SDS011;41919;42.648;23.384;2022-08-19T11:48:38;9.10;;;3.63;;
56051;SDS011;41919;42.648;23.384;2022-08-19T11:51:08;5.32;;;3.60;;
56051;SDS011;41919;42.648;23.384;2022-08-19T11:53:35;5.00;;;3.78;;
56051;SDS011;41919;42.648;23.384;2022-08-19T11:56:02;3.85;;;3.45;;
56051;SDS011;41919;42.648;23.384;2022-08-19T11:58:28;10.27;;;3.78;;
56051;SDS011;41919;42.648;23.384;2022-08-19T12:00:54;5.25;;;4.07;;
56051;SDS011;41919;42.648;23.384;2022-08-19T12:03:20;4.78;;;3.92;;
56051;SDS011;41919;42.648;23.384;2022-08-19T12:05:45;5.25;;;3.53;;
56051;SDS011;41919;42.648;23.384;2022-08-19T12:08:12;5.60;;;4.10;;
56051;SDS011;41919;42.648;23.384;2022-08-19T12:10:38;5.18;;;3.95;;
56051;SDS011;41919;42.648;23.384;2022-08-19T12:13:06;4.82;;;3.83;;
56051;SDS011;41919;42.648;23.384;2022-08-19T12:15:38;4.72;;;4.10;;
56051;SDS011;41919;42.648;23.384;2022-08-19T12:18:06;4.57;;;4.18;;
56051;SDS011;41919;42.648;23.384;2022-08-19T12:20:36;3.95;;;3.63;;
56051;SDS011;41919;42.648;23.384;2022-08-19T12:23:04;4.43;;;4.03;;
56051;SDS011;41919;42.648;23.384;2022-08-19T12:25:32;4.72;;;4.32;;
56051;SDS011;41919;42.648;23.384;2022-08-19T12:27:58;4.30;;;3.90;;
56051;SDS011;41919;42.648;23.384;2022-08-19T12:30:24;4.88;;;3.97;;
56051;SDS011;41919;42.648;23.384;2022-08-19T12:32:50;4.63;;;4.20;;
56051;SDS011;41919;42.648;23.384;2022-08-19T12:35:16;6.50;;;4.47;;
56051;SDS011;41919;42.648;23.384;2022-08-19T12:37:45;5.68;;;4.38;;
56051;SDS011;41919;42.648;23.384;2022-08-19T12:40:12;5.28;;;4.32;;
56051;SDS011;41919;42.648;23.384;2022-08-19T12:42:38;4.55;;;3.92;;
56051;SDS011;41919;42.648;23.384;2022-08-19T12:45:09;4.45;;;4.03;;
56051;SDS011;41919;42.648;23.384;2022-08-19T12:47:35;6.05;;;4.80;;
56051;SDS011;41919;42.648;23.384;2022-08-19T12:50:01;8.85;;;4.20;;
56051;SDS011;41919;42.648;23.384;2022-08-19T12:52:27;4.90;;;4.45;;
56051;SDS011;41919;42.648;23.384;2022-08-19T12:54:53;4.72;;;3.83;;
56051;SDS011;41919;42.648;23.384;2022-08-19T12:57:20;4.63;;;4.22;;
56051;SDS011;41919;42.648;23.384;2022-08-19T12:59:53;6.40;;;3.75;;
56051;SDS011;41919;42.648;23.384;2022-08-19T13:02:19;4.22;;;3.78;;
56051;SDS011;41919;42.648;23.384;2022-08-19T13:04:46;5.78;;;4.72;;
56051;SDS011;41919;42.648;23.384;2022-08-19T13:07:11;5.70;;;4.18;;
56051;SDS011;41919;42.648;23.384;2022-08-19T13:09:37;8.70;;;5.05;;
56051;SDS011;41919;42.648;23.384;2022-08-19T13:12:03;5.75;;;4.28;;
56051;SDS011;41919;42.648;23.384;2022-08-19T13:14:32;5.40;;;4.50;;
56051;SDS011;41919;42.648;23.384;2022-08-19T13:17:01;5.60;;;3.90;;
56051;SDS011;41919;42.648;23.384;2022-08-19T13:19:26;5.43;;;4.00;;
56051;SDS011;41919;42.648;23.384;2022-08-19T13:25:12;5.63;;;4.15;;
56051;SDS011;41919;42.648;23.384;2022-08-19T13:27:57;7.35;;;4.75;;
56051;SDS011;41919;42.648;23.384;2022-08-19T13:34:00;4.82;;;4.10;;
56051;SDS011;41919;42.648;23.384;2022-08-19T13:37:05;4.68;;;4.20;;
56051;SDS011;41919;42.648;23.384;2022-08-19T13:40:04;9.52;;;4.43;;
56051;SDS011;41919;42.648;23.384;2022-08-19T13:42:46;5.50;;;4.28;;
56051;SDS011;41919;42.648;23.384;2022-08-19T13:45:33;5.78;;;4.53;;
56051;SDS011;41919;42.648;23.384;2022-08-19T13:48:16;4.88;;;4.38;;
56051;SDS011;41919;42.648;23.384;2022-08-19T13:51:01;4.75;;;4.30;;
56051;SDS011;41919;42.648;23.384;2022-08-19T13:53:57;5.00;;;4.57;;
56051;SDS011;41919;42.648;23.384;2022-08-19T13:56:57;7.40;;;4.40;;
56051;SDS011;41919;42.648;23.384;2022-08-19T13:59:28;5.70;;;4.30;;
56051;SDS011;41919;42.648;23.384;2022-08-19T14:02:12;7.20;;;4.82;;
56051;SDS011;41919;42.648;23.384;2022-08-19T14:04:48;4.40;;;4.00;;
56051;SDS011;41919;42.648;23.384;2022-08-19T14:07:43;5.35;;;4.20;;
56051;SDS011;41919;42.648;23.384;2022-08-19T14:10:17;4.93;;;4.28;;
56051;SDS011;41919;42.648;23.384;2022-08-19T14:13:24;5.03;;;4.60;;
56051;SDS011;41919;42.648;23.384;2022-08-19T14:15:58;4.95;;;4.30;;
56051;SDS011;41919;42.648;23.384;2022-08-19T14:18:23;7.72;;;4.55;;
56051;SDS011;41919;42.648;23.384;2022-08-19T14:21:01;6.30;;;4.40;;
56051;SDS011;41919;42.648;23.384;2022-08-19T14:23:29;7.18;;;4.32;;
56051;SDS011;41919;42.648;23.384;2022-08-19T14:26:08;4.70;;;3.97;;
56051;SDS011;41919;42.648;23.384;2022-08-19T14:28:47;4.97;;;4.47;;
56051;SDS011;41919;42.648;23.384;2022-08-19T14:31:15;6.95;;;4.75;;
56051;SDS011;41919;42.648;23.384;2022-08-19T14:33:44;5.93;;;4.50;;
56051;SDS011;41919;42.648;23.384;2022-08-19T14:36:13;6.47;;;4.57;;
56051;SDS011;41919;42.648;23.384;2022-08-19T14:38:38;8.50;;;4.93;;
56051;SDS011;41919;42.648;23.384;2022-08-19T14:43:34;8.57;;;4.30;;
56051;SDS011;41919;42.648;23.384;2022-08-19T14:46:00;7.57;;;4.75;;
56051;SDS011;41919;42.648;23.384;2022-08-19T14:48:26;7.43;;;4.55;;
56051;SDS011;41919;42.648;23.384;2022-08-19T14:50:52;4.78;;;4.30;;
56051;SDS011;41919;42.648;23.384;2022-08-19T14:53:17;6.20;;;4.20;;
56051;SDS011;41919;42.648;23.384;2022-08-19T14:55:44;7.47;;;4.22;;
56051;SDS011;41919;42.648;23.384;2022-08-19T14:58:11;4.78;;;4.32;;
56051;SDS011;41919;42.648;23.384;2022-08-19T15:00:37;5.32;;;4.10;;
56051;SDS011;41919;42.648;23.384;2022-08-19T15:03:03;4.25;;;3.70;;
56051;SDS011;41919;42.648;23.384;2022-08-19T15:05:28;6.57;;;4.63;;
56051;SDS011;41919;42.648;23.384;2022-08-19T15:07:54;5.32;;;4.30;;
56051;SDS011;41919;42.648;23.384;2022-08-19T15:10:22;4.30;;;4.00;;